Time;durP1;ratioP1;P1;durP2;ratioP2;P2;SDS_P1;SDS_P2;PMS_P1;PMS_P2;Temp;Humidity;BMP_temperature;BMP_pressure;BME280_temperature;BME280_humidity;BME280_pressure;Samples;Min_cycle;Max_cycle;Signal;HPM_P1;HPM_P2
2019/12/06 00:00:46;;;;;;;13;7.8;;;;;;;;;;;;;
2019/12/06 00:03:14;;;;;;;12.7;8.5;;;;;;;;;;;;;
2019/12/06 00:05:51;;;;;;;12.2;7.8;;;;;;;;;;;;;
2019/12/06 00:08:04;;;;;;;12.1;7.4;;;;;;;;;;;;;
2019/12/06 00:10:33;;;;;;;11.9;7.4;;;;;;;;;;;;;
2019/12/06 00:12:53;;;;;;;12.3;8;;;;;;;;;;;;;
2019/12/06 00:15:19;;;;;;;11.1;7.5;;;;;;;;;;;;;
2019/12/06 00:17:46;;;;;;;12.3;7.5;;;;;;;;;;;;;
2019/12/06 00:20:09;;;;;;;11.7;7.5;;;;;;;;;;;;;
2019/12/06 00:22:42;;;;;;;13.3;7.7;;;;;;;;;;;;;
2019/12/06 00:25:06;;;;;;;12.7;8;;;;;;;;;;;;;
2019/12/06 00:27:28;;;;;;;13.3;8.4;;;;;;;;;;;;;
2019/12/06 00:29:54;;;;;;;14.9;10.4;;;;;;;;;;;;;
2019/12/06 00:32:27;;;;;;;10.3;7.5;;;;;;;;;;;;;
2019/12/06 00:34:48;;;;;;;11;7.1;;;;;;;;;;;;;
2019/12/06 00:37:11;;;;;;;13.8;8.7;;;;;;;;;;;;;
2019/12/06 00:39:35;;;;;;;9.6;7;;;;;;;;;;;;;
2019/12/06 00:42:07;;;;;;;8;6.3;;;;;;;;;;;;;
2019/12/06 00:44:41;;;;;;;9.9;6.9;;;;;;;;;;;;;
2019/12/06 00:47:05;;;;;;;10.2;6.7;;;;;;;;;;;;;
2019/12/06 00:49:38;;;;;;;11.1;6.3;;;;;;;;;;;;;
2019/12/06 00:52:05;;;;;;;9.2;6.3;;;;;;;;;;;;;
2019/12/06 00:54:22;;;;;;;7.5;5;;;;;;;;;;;;;
2019/12/06 00:56:46;;;;;;;7.4;5.1;;;;;;;;;;;;;
2019/12/06 00:59:16;;;;;;;7.5;5.2;;;;;;;;;;;;;
2019/12/06 01:01:40;;;;;;;8;5.3;;;;;;;;;;;;;
2019/12/06 01:04:04;;;;;;;7.4;5.1;;;;;;;;;;;;;
2019/12/06 01:07:56;;;;;;;8.7;6.1;;;;;;;;;;;;;
2019/12/06 01:11:40;;;;;;;10.4;7.2;;;;;;;;;;;;;
2019/12/06 01:13:54;;;;;;;10.9;6.8;;;;;;;;;;;;;
2019/12/06 01:16:20;;;;;;;7.9;5.2;;;;;;;;;;;;;
2019/12/06 01:18:47;;;;;;;9.2;5.7;;;;;;;;;;;;;
2019/12/06 01:21:10;;;;;;;7.3;4.8;;;;;;;;;;;;;
2019/12/06 01:23:37;;;;;;;7.7;4.4;;;;;;;;;;;;;
2019/12/06 01:26:08;;;;;;;7.4;4.8;;;;;;;;;;;;;
2019/12/06 01:28:40;;;;;;;8;5;;;;;;;;;;;;;
2019/12/06 01:31:00;;;;;;;7.3;5;;;;;;;;;;;;;
2019/12/06 01:33:27;;;;;;;8.7;4.8;;;;;;;;;;;;;
2019/12/06 01:35:55;;;;;;;9.5;4.7;;;;;;;;;;;;;
2019/12/06 01:38:21;;;;;;;7.4;4.7;;;;;;;;;;;;;
2019/12/06 01:40:46;;;;;;;7.2;4.9;;;;;;;;;;;;;
2019/12/06 01:43:14;;;;;;;7;4.8;;;;;;;;;;;;;
2019/12/06 01:45:38;;;;;;;8.7;5.4;;;;;;;;;;;;;
2019/12/06 01:48:06;;;;;;;9.1;5.6;;;;;;;;;;;;;
2019/12/06 01:50:35;;;;;;;8.2;5.4;;;;;;;;;;;;;
2019/12/06 01:52:56;;;;;;;9.7;6.1;;;;;;;;;;;;;
2019/12/06 01:55:23;;;;;;;8.4;5.4;;;;;;;;;;;;;
2019/12/06 01:57:48;;;;;;;7.9;4.6;;;;;;;;;;;;;
2019/12/06 02:00:17;;;;;;;7.1;4.7;;;;;;;;;;;;;
2019/12/06 02:02:42;;;;;;;8.4;4.6;;;;;;;;;;;;;
2019/12/06 02:05:10;;;;;;;7.3;4.3;;;;;;;;;;;;;
2019/12/06 02:07:32;;;;;;;8.8;4.3;;;;;;;;;;;;;
2019/12/06 02:09:57;;;;;;;6.8;4.4;;;;;;;;;;;;;
2019/12/06 02:12:24;;;;;;;9.4;4.1;;;;;;;;;;;;;
2019/12/06 02:14:53;;;;;;;7;4.3;;;;;;;;;;;;;
2019/12/06 02:17:18;;;;;;;5.9;3.9;;;;;;;;;;;;;
2019/12/06 02:19:42;;;;;;;6.6;4.1;;;;;;;;;;;;;
2019/12/06 02:22:09;;;;;;;9.1;5.7;;;;;;;;;;;;;
2019/12/06 02:24:32;;;;;;;7.8;4.8;;;;;;;;;;;;;
2019/12/06 02:26:59;;;;;;;7.9;5.1;;;;;;;;;;;;;
2019/12/06 02:29:27;;;;;;;8;4.9;;;;;;;;;;;;;
2019/12/06 02:31:50;;;;;;;6.3;4.2;;;;;;;;;;;;;
2019/12/06 02:34:15;;;;;;;6.3;4.2;;;;;;;;;;;;;
2019/12/06 02:36:44;;;;;;;7.1;4.4;;;;;;;;;;;;;
2019/12/06 02:39:13;;;;;;;6.9;3.8;;;;;;;;;;;;;
2019/12/06 02:41:32;;;;;;;6.9;4;;;;;;;;;;;;;
2019/12/06 02:44:00;;;;;;;6.9;3.9;;;;;;;;;;;;;
2019/12/06 02:49:25;;;;;;;6.2;3.7;;;;;;;;;;;;;
2019/12/06 02:51:48;;;;;;;6.1;3.4;;;;;;;;;;;;;
2019/12/06 02:56:50;;;;;;;7.7;3.5;;;;;;;;;;;;;
2019/12/06 02:58:57;;;;;;;4.9;3.4;;;;;;;;;;;;;
2019/12/06 03:01:26;;;;;;;5.6;3.3;;;;;;;;;;;;;
2019/12/06 03:03:47;;;;;;;6.9;3;;;;;;;;;;;;;
2019/12/06 03:06:21;;;;;;;5;3;;;;;;;;;;;;;
2019/12/06 03:08:46;;;;;;;8.6;4.9;;;;;;;;;;;;;
2019/12/06 03:11:00;;;;;;;7.7;4.3;;;;;;;;;;;;;
2019/12/06 03:13:31;;;;;;;10.4;5.7;;;;;;;;;;;;;
2019/12/06 03:15:52;;;;;;;9.6;5.7;;;;;;;;;;;;;
2019/12/06 03:18:16;;;;;;;8.3;4.7;;;;;;;;;;;;;
2019/12/06 03:20:41;;;;;;;10.7;5.4;;;;;;;;;;;;;
2019/12/06 03:23:15;;;;;;;8.7;5.2;;;;;;;;;;;;;
2019/12/06 03:25:47;;;;;;;6.9;4.2;;;;;;;;;;;;;
2019/12/06 03:28:08;;;;;;;6.8;3.7;;;;;;;;;;;;;
2019/12/06 03:30:44;;;;;;;4.5;2.9;;;;;;;;;;;;;
2019/12/06 03:33:14;;;;;;;7.6;4.2;;;;;;;;;;;;;
2019/12/06 03:35:37;;;;;;;7.8;4.6;;;;;;;;;;;;;
2019/12/06 03:38:01;;;;;;;8.6;5.5;;;;;;;;;;;;;
2019/12/06 03:40:30;;;;;;;9.1;5.4;;;;;;;;;;;;;
2019/12/06 03:42:56;;;;;;;7.8;5.1;;;;;;;;;;;;;
2019/12/06 03:45:21;;;;;;;8.1;4.5;;;;;;;;;;;;;
2019/12/06 03:47:52;;;;;;;5.8;3.8;;;;;;;;;;;;;
2019/12/06 03:50:15;;;;;;;5.1;3;;;;;;;;;;;;;
2019/12/06 03:52:42;;;;;;;3.9;2.5;;;;;;;;;;;;;
2019/12/06 03:55:10;;;;;;;4.7;3.1;;;;;;;;;;;;;
2019/12/06 03:57:32;;;;;;;7;3.6;;;;;;;;;;;;;
2019/12/06 03:59:56;;;;;;;7.2;4.9;;;;;;;;;;;;;
2019/12/06 04:03:24;;;;;;;7.1;4.2;;;;;;;-1.54;85.88281;941.2719;;;;
2019/12/06 04:06:00;;;;;;;5.6;3.7;;;;;;;-1.55;86.07129;941.281;;;;
2019/12/06 04:08:35;;;;;;;6.9;3.8;;;;;;;-1.57;86.29883;941.2346;;;;
2019/12/06 04:11:28;;;;;;;5.5;3.5;;;;;;;-1.54;86.35938;941.2397;;;;
2019/12/06 04:16:19;;;;;;;4.4;2.7;;;;;;;-1.45;86.20117;941.2336;;;;
2019/12/06 04:18:49;;;;;;;3.7;2.7;;;;;;;-1.49;86.43555;941.2194;;;;
2019/12/06 04:21:10;;;;;;;8.1;5.2;;;;;;;-1.44;85.90234;941.1599;;;;
2019/12/06 04:23:43;;;;;;;7.4;5;;;;;;;-1.4;85.25488;941.2285;;;;
2019/12/06 04:26:23;;;;;;;7.6;4.6;;;;;;;-1.49;85.24805;941.2327;;;;
2019/12/06 04:28:58;;;;;;;3.9;2.7;;;;;;;-1.48;85.45117;941.2411;;;;
2019/12/06 04:31:22;;;;;;;4.2;2.6;;;;;;;-1.47;85.45313;941.1886;;;;
2019/12/06 04:34:01;;;;;;;4.5;2.8;;;;;;;-1.38;85.45898;941.1777;;;;
2019/12/06 04:36:32;;;;;;;6.3;4.1;;;;;;;-1.27;85.31543;941.2436;;;;
2019/12/06 04:39:04;;;;;;;8.8;6.2;;;;;;;-1.1;84.42676;941.2065;;;;
2019/12/06 04:42:00;;;;;;;7.5;5.9;;;;;;;-1.01;83.97852;941.2319;;;;
2019/12/06 04:44:28;;;;;;;13.7;10.3;;;;;;;-1.08;84.4209;941.2065;;;;
2019/12/06 04:46:57;;;;;;;5.2;3.4;;;;;;;-1.16;84.43848;941.2053;;;;
2019/12/06 04:49:30;;;;;;;6.3;3.8;;;;;;;-1.23;84.55664;941.2272;;;;
2019/12/06 04:51:59;;;;;;;5.5;3.2;;;;;;;-1.29;84.59082;941.1559;;;;
2019/12/06 04:54:30;;;;;;;4.1;2.8;;;;;;;-1.28;84.52344;941.2592;;;;
2019/12/06 04:56:48;;;;;;;4.3;2.5;;;;;;;-1.35;84.59961;941.2092;;;;
2019/12/06 04:59:22;;;;;;;3.7;2.3;;;;;;;-1.36;84.79785;941.1951;;;;
2019/12/06 05:01:47;;;;;;;4.5;2.4;;;;;;;-1.41;84.95313;941.2422;;;;
2019/12/06 05:04:20;;;;;;;6.2;3.4;;;;;;;-1.35;84.84375;941.1649;;;;
2019/12/06 05:06:58;;;;;;;5.1;3.3;;;;;;;-1.41;85.03125;941.1428;;;;
2019/12/06 05:09:36;;;;;;;7.9;4.5;;;;;;;-1.33;84.73535;941.1679;;;;
2019/12/06 05:12:10;;;;;;;13.5;8;;;;;;;-1.32;84.7627;941.1822;;;;
2019/12/06 05:14:42;;;;;;;21.6;12.9;;;;;;;-1.26;84.51855;941.2067;;;;
2019/12/06 05:17:10;;;;;;;12.1;8.1;;;;;;;-1.32;84.09668;941.2369;;;;
2019/12/06 05:19:44;;;;;;;12.8;7.3;;;;;;;-1.4;84.31348;941.2581;;;;
2019/12/06 05:22:13;;;;;;;13.2;8;;;;;;;-1.43;84.25195;941.2809;;;;
2019/12/06 05:24:40;;;;;;;15.3;8.5;;;;;;;-1.48;84.60742;941.2498;;;;
2019/12/06 05:27:13;;;;;;;14.7;8.5;;;;;;;-1.47;84.89844;941.2908;;;;
2019/12/06 05:29:38;;;;;;;17.3;10;;;;;;;-1.38;84.5498;941.2567;;;;
2019/12/06 05:32:39;;;;;;;15.9;7.9;;;;;;;-1.29;84.42383;941.2527;;;;
2019/12/06 05:34:43;;;;;;;12.8;7.8;;;;;;;-1.08;83.39844;941.2769;;;;
2019/12/06 05:37:03;;;;;;;12.6;8.2;;;;;;;;;;;;;
2019/12/06 05:39:29;;;;;;;13.4;9.2;;;;;;;;;;;;;
2019/12/06 05:41:55;;;;;;;13.6;8.6;;;;;;;;;;;;;
2019/12/06 05:44:20;;;;;;;12.3;8.1;;;;;;;;;;;;;
2019/12/06 05:46:47;;;;;;;14.2;10;;;;;;;;;;;;;
2019/12/06 05:49:12;;;;;;;17.9;10.2;;;;;;;;;;;;;
2019/12/06 05:51:38;;;;;;;11.2;7.2;;;;;;;;;;;;;
2019/12/06 05:54:06;;;;;;;8.2;5.9;;;;;;;;;;;;;
2019/12/06 05:56:27;;;;;;;7.2;4.7;;;;;;;;;;;;;
2019/12/06 05:58:54;;;;;;;7.8;4.3;;;;;;;;;;;;;
2019/12/06 06:02:07;;;;;;;8.9;5.9;;;;;;;;;;;;;
2019/12/06 06:03:47;;;;;;;60;45.9;;;;;;;;;;;;;
2019/12/06 06:06:15;;;;;;;152;138.8;;;;;;;;;;;;;
2019/12/06 06:08:40;;;;;;;163.5;129.2;;;;;;;;;;;;;
2019/12/06 06:11:03;;;;;;;13.4;8.9;;;;;;;;;;;;;
2019/12/06 06:13:29;;;;;;;17.7;13.4;;;;;;;;;;;;;
2019/12/06 06:15:55;;;;;;;9.7;7;;;;;;;;;;;;;
2019/12/06 06:18:22;;;;;;;10;7.4;;;;;;;;;;;;;
2019/12/06 06:20:59;;;;;;;53.1;47.1;;;;;;;;;;;;;
2019/12/06 06:23:59;;;;;;;10;7.6;;;;;;;;;;;;;
2019/12/06 06:26:15;;;;;;;15.1;10.2;;;;;;;;;;;;;
2019/12/06 06:28:43;;;;;;;25.9;17.3;;;;;;;;;;;;;
2019/12/06 06:31:05;;;;;;;16.2;9.3;;;;;;;;;;;;;
2019/12/06 06:33:31;;;;;;;24.4;14.6;;;;;;;;;;;;;
2019/12/06 06:36:00;;;;;;;24.5;14;;;;;;;;;;;;;
2019/12/06 06:38:28;;;;;;;60.7;46.7;;;;;;;;;;;;;
2019/12/06 06:40:48;;;;;;;17;11.6;;;;;;;;;;;;;
2019/12/06 06:43:14;;;;;;;18.3;12.3;;;;;;;;;;;;;
2019/12/06 06:45:45;;;;;;;15.1;9.4;;;;;;;;;;;;;
2019/12/06 06:48:41;;;;;;;30.7;25.2;;;;;;;;;;;;;
2019/12/06 06:50:30;;;;;;;19.4;13.8;;;;;;;;;;;;;
2019/12/06 06:52:54;;;;;;;13.2;8.7;;;;;;;;;;;;;
2019/12/06 06:55:26;;;;;;;12.8;7.9;;;;;;;;;;;;;
2019/12/06 06:57:50;;;;;;;11.4;7.4;;;;;;;;;;;;;
2019/12/06 07:00:15;;;;;;;56.9;49.4;;;;;;;;;;;;;
2019/12/06 07:02:43;;;;;;;10.6;7.1;;;;;;;;;;;;;
2019/12/06 07:05:15;;;;;;;10.8;7.5;;;;;;;;;;;;;
2019/12/06 07:07:47;;;;;;;10.2;5.9;;;;;;;;;;;;;
2019/12/06 07:10:22;;;;;;;7.8;5.4;;;;;;;;;;;;;
2019/12/06 07:12:46;;;;;;;6.9;4.6;;;;;;;;;;;;;
2019/12/06 07:15:20;;;;;;;17.8;11.1;;;;;;;;;;;;;
2019/12/06 07:17:40;;;;;;;12.6;9.5;;;;;;;;;;;;;
2019/12/06 07:20:02;;;;;;;12.2;8;;;;;;;;;;;;;
2019/12/06 07:22:26;;;;;;;11.2;8.4;;;;;;;;;;;;;
2019/12/06 07:24:57;;;;;;;13.9;8;;;;;;;;;;;;;
2019/12/06 07:27:35;;;;;;;11.2;7.1;;;;;;;;;;;;;
2019/12/06 07:29:47;;;;;;;13.3;8;;;;;;;;;;;;;
2019/12/06 07:32:13;;;;;;;67.4;35.3;;;;;;;;;;;;;
2019/12/06 07:34:47;;;;;;;20.5;10.9;;;;;;;;;;;;;
2019/12/06 07:37:13;;;;;;;18.5;10.6;;;;;;;;;;;;;
2019/12/06 07:39:53;;;;;;;17.4;10.6;;;;;;;;;;;;;
2019/12/06 07:42:05;;;;;;;16.4;10.7;;;;;;;;;;;;;
2019/12/06 07:44:45;;;;;;;23.6;14.1;;;;;;;;;;;;;
2019/12/06 07:47:00;;;;;;;21.8;13.9;;;;;;;;;;;;;
2019/12/06 07:49:22;;;;;;;53;47.6;;;;;;;;;;;;;
2019/12/06 07:51:50;;;;;;;19.7;12.7;;;;;;;;;;;;;
2019/12/06 07:54:15;;;;;;;22.4;14.2;;;;;;;;;;;;;
2019/12/06 07:56:39;;;;;;;20.4;12.1;;;;;;;;;;;;;
2019/12/06 07:59:03;;;;;;;18.8;10.4;;;;;;;;;;;;;
2019/12/06 08:01:30;;;;;;;17.9;11.7;;;;;;;;;;;;;
2019/12/06 08:03:58;;;;;;;19.6;11.2;;;;;;;;;;;;;
2019/12/06 08:06:22;;;;;;;18.3;9.3;;;;;;;;;;;;;
2019/12/06 08:08:47;;;;;;;24.6;10.7;;;;;;;;;;;;;
2019/12/06 08:11:16;;;;;;;19.1;10.4;;;;;;;;;;;;;
2019/12/06 08:13:41;;;;;;;18.1;10.3;;;;;;;;;;;;;
2019/12/06 08:16:05;;;;;;;15.4;10.6;;;;;;;;;;;;;
2019/12/06 08:18:34;;;;;;;16.3;10.5;;;;;;;;;;;;;
2019/12/06 08:20:56;;;;;;;19.1;11.4;;;;;;;;;;;;;
2019/12/06 08:23:27;;;;;;;17.4;11.4;;;;;;;;;;;;;
2019/12/06 08:25:54;;;;;;;19.3;11.4;;;;;;;;;;;;;
2019/12/06 08:28:27;;;;;;;16.1;9.2;;;;;;;;;;;;;
2019/12/06 08:30:46;;;;;;;16.3;9.2;;;;;;;;;;;;;
2019/12/06 08:33:12;;;;;;;15.6;9.1;;;;;;;;;;;;;
2019/12/06 08:35:42;;;;;;;13.3;7.1;;;;;;;;;;;;;
2019/12/06 08:38:04;;;;;;;13.1;6.3;;;;;;;;;;;;;
2019/12/06 08:40:33;;;;;;;13.5;6.6;;;;;;;;;;;;;
2019/12/06 08:42:57;;;;;;;13;7.1;;;;;;;;;;;;;
2019/12/06 08:45:41;;;;;;;15.1;7.7;;;;;;;;;;;;;
2019/12/06 08:47:54;;;;;;;12.2;5.9;;;;;;;;;;;;;
2019/12/06 08:50:17;;;;;;;13.5;6.5;;;;;;;;;;;;;
2019/12/06 08:52:49;;;;;;;12.7;6.1;;;;;;;;;;;;;
2019/12/06 08:55:12;;;;;;;11.3;6.7;;;;;;;;;;;;;
2019/12/06 08:57:40;;;;;;;21.9;13.4;;;;;;;;;;;;;
2019/12/06 09:00:06;;;;;;;19;12.2;;;;;;;;;;;;;
2019/12/06 09:03:02;;;;;;;21.3;13;;;;;;;;;;;;;
2019/12/06 09:04:56;;;;;;;18.6;10.1;;;;;;;;;;;;;
2019/12/06 09:07:25;;;;;;;13.1;7.4;;;;;;;;;;;;;
2019/12/06 09:09:54;;;;;;;19.6;12.7;;;;;;;;;;;;;
2019/12/06 09:12:16;;;;;;;13.6;8.6;;;;;;;;;;;;;
2019/12/06 09:14:45;;;;;;;8.7;6;;;;;;;;;;;;;
2019/12/06 09:17:08;;;;;;;9.5;4.5;;;;;;;;;;;;;
2019/12/06 09:19:34;;;;;;;6;3.7;;;;;;;;;;;;;
2019/12/06 09:21:59;;;;;;;7.8;4.9;;;;;;;;;;;;;
2019/12/06 09:24:28;;;;;;;19.6;11;;;;;;;;;;;;;
2019/12/06 09:26:53;;;;;;;31.2;19.1;;;;;;;;;;;;;
2019/12/06 09:29:18;;;;;;;55;32.8;;;;;;;;;;;;;
2019/12/06 09:31:45;;;;;;;28.3;18.3;;;;;;;;;;;;;
2019/12/06 09:34:09;;;;;;;23.1;12.4;;;;;;;;;;;;;
2019/12/06 09:36:36;;;;;;;21.2;10.5;;;;;;;;;;;;;
2019/12/06 09:39:06;;;;;;;17.6;7.7;;;;;;;;;;;;;
2019/12/06 09:41:30;;;;;;;25.6;11.5;;;;;;;;;;;;;
2019/12/06 09:43:59;;;;;;;14.7;8.9;;;;;;;;;;;;;
2019/12/06 09:46:22;;;;;;;15;8.7;;;;;;;;;;;;;
2019/12/06 09:48:52;;;;;;;31.2;8.4;;;;;;;;;;;;;
2019/12/06 09:51:15;;;;;;;19.5;7.6;;;;;;;;;;;;;
2019/12/06 09:53:44;;;;;;;26.4;7.4;;;;;;;;;;;;;
2019/12/06 09:56:05;;;;;;;14.2;5.7;;;;;;;;;;;;;
2019/12/06 09:58:30;;;;;;;20.9;5.5;;;;;;;;;;;;;
2019/12/06 10:01:00;;;;;;;18;4.9;;;;;;;;;;;;;
2019/12/06 10:03:24;;;;;;;25.1;6.2;;;;;;;;;;;;;
2019/12/06 10:06:06;;;;;;;21.7;6.8;;;;;;;;;;;;;
2019/12/06 10:08:31;;;;;;;28;7.2;;;;;;;;;;;;;
2019/12/06 10:10:57;;;;;;;15;6.8;;;;;;;;;;;;;
2019/12/06 10:13:22;;;;;;;38.5;9.8;;;;;;;;;;;;;
2019/12/06 10:15:49;;;;;;;13.6;6;;;;;;;;;;;;;
2019/12/06 10:18:15;;;;;;;35.6;7.8;;;;;;;;;;;;;
2019/12/06 10:20:42;;;;;;;18.6;7.6;;;;;;;;;;;;;
2019/12/06 10:23:06;;;;;;;19.1;8.2;;;;;;;;;;;;;
2019/12/06 10:25:31;;;;;;;29.4;13.6;;;;;;;;;;;;;
2019/12/06 10:28:02;;;;;;;32.8;15.1;;;;;;;;;;;;;
2019/12/06 10:30:23;;;;;;;40.1;14.5;;;;;;;;;;;;;
2019/12/06 10:32:49;;;;;;;34.8;10.1;;;;;;;;;;;;;
2019/12/06 10:35:13;;;;;;;16.9;6.7;;;;;;;;;;;;;
2019/12/06 10:37:38;;;;;;;6.9;4.2;;;;;;;;;;;;;
2019/12/06 10:40:05;;;;;;;20.2;5.5;;;;;;;;;;;;;
2019/12/06 10:42:29;;;;;;;18.3;4.7;;;;;;;;;;;;;
2019/12/06 10:44:52;;;;;;;14.8;4;;;;;;;;;;;;;
2019/12/06 10:47:18;;;;;;;20;4;;;;;;;;;;;;;
2019/12/06 10:49:43;;;;;;;14.2;3.3;;;;;;;;;;;;;
2019/12/06 10:52:11;;;;;;;10.3;3.2;;;;;;;;;;;;;
2019/12/06 10:54:33;;;;;;;11.8;3.3;;;;;;;;;;;;;
2019/12/06 10:56:59;;;;;;;10.4;2.3;;;;;;;;;;;;;
2019/12/06 10:59:24;;;;;;;34.9;5;;;;;;;;;;;;;
2019/12/06 11:02:01;;;;;;;24.9;3.7;;;;;;;;;;;;;
2019/12/06 11:04:43;;;;;;;20.9;3.7;;;;;;;;;;;;;
2019/12/06 11:06:42;;;;;;;14.1;3.1;;;;;;;;;;;;;
2019/12/06 11:09:33;;;;;;;20.9;5.3;;;;;;;;;;;;;
2019/12/06 11:14:06;;;;;;;9.1;2.9;;;;;;;;;;;;;
2019/12/06 11:16:28;;;;;;;6.5;2.5;;;;;;;;;;;;;
2019/12/06 11:18:54;;;;;;;7.9;2.9;;;;;;;;;;;;;
2019/12/06 11:21:19;;;;;;;4.6;2.6;;;;;;;;;;;;;
2019/12/06 11:23:49;;;;;;;7.2;3.8;;;;;;;;;;;;;
2019/12/06 11:26:14;;;;;;;8.3;3.1;;;;;;;;;;;;;
2019/12/06 11:28:41;;;;;;;10.3;3.6;;;;;;;;;;;;;
2019/12/06 11:31:07;;;;;;;9.9;3.9;;;;;;;;;;;;;
2019/12/06 11:33:32;;;;;;;7.2;3.2;;;;;;;;;;;;;
2019/12/06 11:36:07;;;;;;;9.9;3.7;;;;;;;;;;;;;
2019/12/06 11:38:26;;;;;;;9.5;3.4;;;;;;;;;;;;;
2019/12/06 11:41:00;;;;;;;11.2;3.8;;;;;;;;;;;;;
2019/12/06 11:43:22;;;;;;;7.9;3.1;;;;;;;;;;;;;
2019/12/06 11:45:47;;;;;;;3.8;1.9;;;;;;;;;;;;;
2019/12/06 11:48:17;;;;;;;5.4;2.4;;;;;;;;;;;;;
2019/12/06 11:50:42;;;;;;;7.9;2.1;;;;;;;;;;;;;
2019/12/06 11:53:08;;;;;;;6.8;2.1;;;;;;;;;;;;;
2019/12/06 11:56:06;;;;;;;7.4;2.5;;;;;;;;;;;;;
2019/12/06 11:58:43;;;;;;;4.6;2.1;;;;;;;;;;;;;
2019/12/06 12:01:12;;;;;;;7.6;2;;;;;;;;;;;;;
2019/12/06 12:03:38;;;;;;;6.5;2.5;;;;;;;;;;;;;
2019/12/06 12:06:22;;;;;;;5;2.2;;;;;;;;;;;;;
2019/12/06 12:08:30;;;;;;;14.2;5.8;;;;;;;;;;;;;
2019/12/06 12:11:03;;;;;;;18.5;6.5;;;;;;;;;;;;;
2019/12/06 12:13:33;;;;;;;20.6;6.2;;;;;;;;;;;;;
2019/12/06 12:15:56;;;;;;;18.9;7.3;;;;;;;;;;;;;
2019/12/06 12:18:20;;;;;;;32.9;8.6;;;;;;;;;;;;;
2019/12/06 12:20:45;;;;;;;12.1;4.9;;;;;;;;;;;;;
2019/12/06 12:23:15;;;;;;;30.2;7.1;;;;;;;;;;;;;
2019/12/06 12:25:41;;;;;;;28.6;6.5;;;;;;;;;;;;;
2019/12/06 12:28:08;;;;;;;31.8;8.3;;;;;;;;;;;;;
2019/12/06 12:30:32;;;;;;;19.5;6.2;;;;;;;;;;;;;
2019/12/06 12:32:56;;;;;;;22.6;6;;;;;;;;;;;;;
2019/12/06 12:35:21;;;;;;;18.8;5;;;;;;;;;;;;;
2019/12/06 12:37:54;;;;;;;17.7;4.4;;;;;;;;;;;;;
2019/12/06 12:40:16;;;;;;;10.6;3.8;;;;;;;;;;;;;
2019/12/06 12:42:46;;;;;;;25.4;4.6;;;;;;;;;;;;;
2019/12/06 12:45:11;;;;;;;14.6;4.1;;;;;;;;;;;;;
2019/12/06 12:47:37;;;;;;;12.9;4.5;;;;;;;;;;;;;
2019/12/06 12:50:06;;;;;;;9.9;5.2;;;;;;;;;;;;;
2019/12/06 12:52:30;;;;;;;11;4.6;;;;;;;;;;;;;
2019/12/06 13:01:35;;;;;;;17.1;5.2;;;;;;;;;;;;;
2019/12/06 13:04:04;;;;;;;34;30;;;;;;;;;;;;;
2019/12/06 13:05:15;;;;;;;19.9;7.6;;;;;;;;;;;;;
2019/12/06 13:07:53;;;;;;;13.5;3.8;;;;;;;;;;;;;
2019/12/06 13:11:11;;;;;;;8.5;2.9;;;;;;;;;;;;;
2019/12/06 13:14:00;;;;;;;11.1;3.4;;;;;;;;;;;;;
2019/12/06 13:15:23;;;;;;;11.7;4.6;;;;;;;;;;;;;
2019/12/06 13:21:02;;;;;;;11;4.6;;;;;;;;;;;;;
2019/12/06 13:23:00;;;;;;;13;5.6;;;;;;;;;;;;;
2019/12/06 13:27:00;;;;;;;10.8;4.8;;;;;;;;;;;;;
2019/12/06 13:30:03;;;;;;;12.2;4.6;;;;;;;;;;;;;
2019/12/06 13:31:42;;;;;;;19.4;5.9;;;;;;;;;;;;;
2019/12/06 13:34:08;;;;;;;11.7;3.5;;;;;;;;;;;;;
2019/12/06 13:36:38;;;;;;;10.6;4.1;;;;;;;;;;;;;
2019/12/06 13:39:03;;;;;;;11.5;3.9;;;;;;;;;;;;;
2019/12/06 13:41:31;;;;;;;13.8;2.7;;;;;;;;;;;;;
2019/12/06 13:43:56;;;;;;;5.8;2.4;;;;;;;;;;;;;
2019/12/06 13:46:20;;;;;;;9.6;2.4;;;;;;;;;;;;;
2019/12/06 13:48:44;;;;;;;7.8;2.7;;;;;;;;;;;;;
2019/12/06 13:51:17;;;;;;;9.5;3.4;;;;;;;;;;;;;
2019/12/06 13:53:48;;;;;;;13.4;3.8;;;;;;;;;;;;;
2019/12/06 13:56:12;;;;;;;10;3.9;;;;;;;;;;;;;
2019/12/06 13:58:39;;;;;;;14.4;4.6;;;;;;;;;;;;;
2019/12/06 14:01:06;;;;;;;25.5;5.3;;;;;;;;;;;;;
2019/12/06 14:03:32;;;;;;;16.4;5.1;;;;;;;;;;;;;
2019/12/06 14:06:01;;;;;;;22.2;6.3;;;;;;;;;;;;;
2019/12/06 14:08:25;;;;;;;14;5.7;;;;;;;;;;;;;
2019/12/06 14:10:50;;;;;;;15.4;5.8;;;;;;;;;;;;;
2019/12/06 14:13:19;;;;;;;22.8;6.8;;;;;;;;;;;;;
2019/12/06 14:15:51;;;;;;;26.4;7.2;;;;;;;;;;;;;
2019/12/06 14:18:13;;;;;;;21;7.4;;;;;;;;;;;;;
2019/12/06 14:20:40;;;;;;;23.8;7.6;;;;;;;;;;;;;
2019/12/06 14:23:12;;;;;;;21.2;7.5;;;;;;;;;;;;;
2019/12/06 14:25:31;;;;;;;16.4;7.5;;;;;;;;;;;;;
2019/12/06 14:27:59;;;;;;;25;8.8;;;;;;;;;;;;;
2019/12/06 14:30:20;;;;;;;32.8;9.8;;;;;;;;;;;;;
2019/12/06 14:32:55;;;;;;;25;10.2;;;;;;;;;;;;;
2019/12/06 14:35:22;;;;;;;29.1;12.2;;;;;;;;;;;;;
2019/12/06 14:37:55;;;;;;;33.9;12;;;;;;;;;;;;;
2019/12/06 14:40:11;;;;;;;25.8;12.4;;;;;;;;;;;;;
2019/12/06 14:42:37;;;;;;;30;12.8;;;;;;;;;;;;;
2019/12/06 14:45:05;;;;;;;26.7;12.8;;;;;;;;;;;;;
2019/12/06 14:52:16;;;;;;;28.6;13.8;;;;;;;;;;;;;
2019/12/06 14:54:47;;;;;;;34.7;14.9;;;;;;;;;;;;;
2019/12/06 14:57:10;;;;;;;28.6;16.4;;;;;;;;;;;;;
2019/12/06 14:59:36;;;;;;;28.4;15.5;;;;;;;;;;;;;
2019/12/06 15:02:08;;;;;;;33;14.9;;;;;;;;;;;;;
2019/12/06 15:04:30;;;;;;;37;16;;;;;;;;;;;;;
2019/12/06 15:06:58;;;;;;;44.4;18.2;;;;;;;;;;;;;
2019/12/06 15:09:20;;;;;;;60.8;21.5;;;;;;;;;;;;;
2019/12/06 15:11:44;;;;;;;52.8;20.4;;;;;;;;;;;;;
2019/12/06 15:14:09;;;;;;;51;21.7;;;;;;;;;;;;;
2019/12/06 15:16:37;;;;;;;56.2;24.3;;;;;;;;;;;;;
2019/12/06 15:19:02;;;;;;;77.5;40.6;;;;;;;;;;;;;
2019/12/06 15:21:27;;;;;;;77.5;37.8;;;;;;;;;;;;;
2019/12/06 15:24:10;;;;;;;74.8;38.9;;;;;;;;;;;;;
2019/12/06 15:26:24;;;;;;;63.7;33.3;;;;;;;;;;;;;
2019/12/06 15:28:53;;;;;;;57.8;26.7;;;;;;;;;;;;;
2019/12/06 15:31:16;;;;;;;63.8;27.9;;;;;;;;;;;;;
2019/12/06 15:33:44;;;;;;;42.7;20.5;;;;;;;;;;;;;
2019/12/06 15:36:09;;;;;;;38.1;20.3;;;;;;;;;;;;;
2019/12/06 15:38:34;;;;;;;37.8;19.6;;;;;;;;;;;;;
2019/12/06 15:40:58;;;;;;;32.9;19.2;;;;;;;;;;;;;
2019/12/06 15:43:23;;;;;;;38.1;21.2;;;;;;;;;;;;;
2019/12/06 15:45:52;;;;;;;34.9;20;;;;;;;;;;;;;
2019/12/06 15:48:16;;;;;;;46.2;27;;;;;;;;;;;;;
2019/12/06 15:50:45;;;;;;;55.3;30.4;;;;;;;;;;;;;
2019/12/06 15:53:10;;;;;;;54.3;32;;;;;;;;;;;;;
2019/12/06 15:55:35;;;;;;;48.8;28.3;;;;;;;;;;;;;
2019/12/06 15:58:06;;;;;;;51.3;28.1;;;;;;;;;;;;;
2019/12/06 16:01:06;;;;;;;48.4;28.4;;;;;;;;;;;;;
2019/12/06 16:03:33;;;;;;;45.9;27.6;;;;;;;;;;;;;
2019/12/06 16:05:56;;;;;;;47.2;28.4;;;;;;;;;;;;;
2019/12/06 16:08:21;;;;;;;52.3;28.7;;;;;;;;;;;;;
2019/12/06 16:10:47;;;;;;;67.9;34.8;;;;;;;;;;;;;
2019/12/06 16:13:13;;;;;;;53.6;30.5;;;;;;;;;;;;;
2019/12/06 16:15:37;;;;;;;53.3;29.2;;;;;;;;;;;;;
2019/12/06 16:18:05;;;;;;;53;29.2;;;;;;;;;;;;;
2019/12/06 16:20:33;;;;;;;54.6;29.4;;;;;;;;;;;;;
2019/12/06 16:22:54;;;;;;;48;26.8;;;;;;;;;;;;;
2019/12/06 16:25:18;;;;;;;43.8;23.7;;;;;;;;;;;;;
2019/12/06 16:27:43;;;;;;;27.2;16.3;;;;;;;;;;;;;
2019/12/06 16:30:10;;;;;;;37.3;20.9;;;;;;;;;;;;;
2019/12/06 16:32:36;;;;;;;50.1;28.8;;;;;;;;;;;;;
2019/12/06 16:35:01;;;;;;;48.3;27.9;;;;;;;;;;;;;
2019/12/06 16:37:32;;;;;;;45.3;27.1;;;;;;;;;;;;;
2019/12/06 16:39:52;;;;;;;37.2;23;;;;;;;;;;;;;
2019/12/06 16:42:17;;;;;;;27.9;17.8;;;;;;;;;;;;;
2019/12/06 16:44:42;;;;;;;21.8;14;;;;;;;;;;;;;
2019/12/06 16:47:10;;;;;;;28.2;16.2;;;;;;;;;;;;;
2019/12/06 16:49:35;;;;;;;34.9;21.4;;;;;;;;;;;;;
2019/12/06 16:52:01;;;;;;;33.2;20.9;;;;;;;;;;;;;
2019/12/06 16:54:30;;;;;;;38.5;24.8;;;;;;;;;;;;;
2019/12/06 16:57:06;;;;;;;35.2;22.7;;;;;;;;;;;;;
2019/12/06 17:01:56;;;;;;;35;21.3;;;;;;;;;;;;;
2019/12/06 17:04:11;;;;;;;36.3;21.7;;;;;;;;;;;;;
2019/12/06 17:06:38;;;;;;;40.7;25.1;;;;;;;;;;;;;
2019/12/06 17:09:11;;;;;;;40.4;25.2;;;;;;;;;;;;;
2019/12/06 17:11:47;;;;;;;109.7;43.8;;;;;;;;;;;;;
2019/12/06 17:14:10;;;;;;;86.1;37.8;;;;;;;;;;;;;
2019/12/06 17:16:26;;;;;;;44.3;27.5;;;;;;;;;;;;;
2019/12/06 17:18:45;;;;;;;53.8;29.8;;;;;;;;;;;;;
2019/12/06 17:21:12;;;;;;;43.6;27.5;;;;;;;;;;;;;
2019/12/06 17:23:37;;;;;;;135.4;48.4;;;;;;;;;;;;;
2019/12/06 17:26:10;;;;;;;39.2;24.1;;;;;;;;;;;;;
2019/12/06 17:28:32;;;;;;;110.6;40.1;;;;;;;;;;;;;
2019/12/06 17:30:57;;;;;;;41;22.6;;;;;;;;;;;;;
2019/12/06 17:33:26;;;;;;;33.2;20.2;;;;;;;;;;;;;
2019/12/06 17:35:50;;;;;;;48.6;21.9;;;;;;;;;;;;;
2019/12/06 17:38:18;;;;;;;33.6;19.2;;;;;;;;;;;;;
2019/12/06 17:40:45;;;;;;;30.9;18.5;;;;;;;;;;;;;
2019/12/06 17:43:09;;;;;;;29;18;;;;;;;;;;;;;
2019/12/06 17:45:35;;;;;;;43.9;25.3;;;;;;;;;;;;;
2019/12/06 17:48:02;;;;;;;59.9;34.4;;;;;;;;;;;;;
2019/12/06 17:50:28;;;;;;;56.6;31.2;;;;;;;;;;;;;
2019/12/06 17:52:54;;;;;;;20.4;12.6;;;;;;;;;;;;;
2019/12/06 17:55:24;;;;;;;23.9;13.1;;;;;;;;;;;;;
2019/12/06 17:57:48;;;;;;;21.1;11;;;;;;;;;;;;;
2019/12/06 18:00:15;;;;;;;31.4;13.8;;;;;;;;;;;;;
2019/12/06 18:03:04;;;;;;;66;27.5;;;;;;;;;;;;;
2019/12/06 18:05:32;;;;;;;36.9;20.6;;;;;;;;;;;;;
2019/12/06 18:07:56;;;;;;;84.7;34.5;;;;;;;;;;;;;
2019/12/06 18:10:22;;;;;;;50;24.2;;;;;;;;;;;;;
2019/12/06 18:13:06;;;;;;;35.6;19.7;;;;;;;;;;;;;
2019/12/06 18:15:32;;;;;;;27.7;17.7;;;;;;;;;;;;;
2019/12/06 18:17:58;;;;;;;31.9;19.5;;;;;;;;;;;;;
2019/12/06 18:20:23;;;;;;;34.3;19.9;;;;;;;;;;;;;
2019/12/06 18:22:48;;;;;;;24.5;16;;;;;;;;;;;;;
2019/12/06 18:25:19;;;;;;;28.1;17.8;;;;;;;;;;;;;
2019/12/06 18:27:42;;;;;;;34.3;21.5;;;;;;;;;;;;;
2019/12/06 18:30:06;;;;;;;30.9;19;;;;;;;;;;;;;
2019/12/06 18:32:33;;;;;;;31.7;18.5;;;;;;;;;;;;;
2019/12/06 18:34:59;;;;;;;36.4;19.8;;;;;;;;;;;;;
2019/12/06 18:37:24;;;;;;;33.4;19.7;;;;;;;;;;;;;
2019/12/06 18:39:52;;;;;;;34.1;19.8;;;;;;;;;;;;;
2019/12/06 18:42:16;;;;;;;36;21;;;;;;;;;;;;;
2019/12/06 18:44:44;;;;;;;34;20.8;;;;;;;;;;;;;
2019/12/06 18:47:10;;;;;;;27.8;18.1;;;;;;;;;;;;;
2019/12/06 18:49:37;;;;;;;29.5;17.5;;;;;;;;;;;;;
2019/12/06 18:52:02;;;;;;;28;17;;;;;;;;;;;;;
2019/12/06 18:54:29;;;;;;;46.7;26.6;;;;;;;;;;;;;
2019/12/06 18:59:28;;;;;;;32;21.4;;;;;;;;;;;;;
2019/12/06 19:01:50;;;;;;;30.3;18.9;;;;;;;;;;;;;
2019/12/06 19:04:13;;;;;;;24;14.9;;;;;;;;;;;;;
2019/12/06 19:07:06;;;;;;;23.8;15.3;;;;;;;;;;;;;
2019/12/06 19:09:30;;;;;;;26.4;17.6;;;;;;;;;;;;;
2019/12/06 19:11:56;;;;;;;31.6;18.7;;;;;;;;;;;;;
2019/12/06 19:14:24;;;;;;;27.1;17.8;;;;;;;;;;;;;
2019/12/06 19:16:46;;;;;;;27.8;17;;;;;;;;;;;;;
2019/12/06 19:19:12;;;;;;;23.4;14.1;;;;;;;;;;;;;
2019/12/06 19:21:38;;;;;;;24.8;14.9;;;;;;;;;;;;;
2019/12/06 19:24:06;;;;;;;22.7;14;;;;;;;;;;;;;
2019/12/06 19:26:31;;;;;;;26.3;15.8;;;;;;;;;;;;;
2019/12/06 19:28:59;;;;;;;38.4;20.2;;;;;;;;;;;;;
2019/12/06 19:31:19;;;;;;;33;19.8;;;;;;;;;;;;;
2019/12/06 19:33:46;;;;;;;33.9;20.9;;;;;;;;;;;;;
2019/12/06 19:36:14;;;;;;;48.8;30;;;;;;;;;;;;;
2019/12/06 19:38:43;;;;;;;42;23.7;;;;;;;;;;;;;
2019/12/06 19:41:06;;;;;;;20.9;13.7;;;;;;;;;;;;;
2019/12/06 19:43:29;;;;;;;12.7;7.9;;;;;;;;;;;;;
2019/12/06 19:45:54;;;;;;;20.3;12.1;;;;;;;;;;;;;
2019/12/06 19:48:21;;;;;;;14.8;8.2;;;;;;;;;;;;;
2019/12/06 19:50:48;;;;;;;19.8;12.4;;;;;;;;;;;;;
2019/12/06 19:53:19;;;;;;;17.1;9.6;;;;;;;;;;;;;
2019/12/06 19:55:45;;;;;;;18.5;11.2;;;;;;;;;;;;;
2019/12/06 19:58:11;;;;;;;22.5;12.7;;;;;;;;;;;;;
2019/12/06 20:00:38;;;;;;;21.9;12.8;;;;;;;;;;;;;
2019/12/06 20:03:12;;;;;;;19.9;12.3;;;;;;;;;;;;;
2019/12/06 20:05:37;;;;;;;22.2;13.4;;;;;;;;;;;;;
2019/12/06 20:08:10;;;;;;;22.9;14.2;;;;;;;;;;;;;
2019/12/06 20:10:35;;;;;;;21.9;13.3;;;;;;;;;;;;;
2019/12/06 20:13:03;;;;;;;22;13.2;;;;;;;;;;;;;